sensor_id;sensor_type;location;lat;lon;timestamp;P1;durP1;ratioP1;P2;durP2;ratioP2
23432;SDS011;41331;45.412;10.992;2022-12-29T00:01:01;23.33;;;12.20;;
23432;SDS011;41331;45.412;10.992;2022-12-29T00:03:29;22.55;;;12.23;;
23432;SDS011;41331;45.412;10.992;2022-12-29T00:05:57;25.42;;;12.80;;
23432;SDS011;41331;45.412;10.992;2022-12-29T00:08:25;22.70;;;12.05;;
23432;SDS011;41331;45.412;10.992;2022-12-29T00:11:08;24.70;;;11.98;;
23432;SDS011;41331;45.412;10.992;2022-12-29T00:13:38;26.30;;;12.15;;
23432;SDS011;41331;45.412;10.992;2022-12-29T00:16:25;24.63;;;12.70;;
23432;SDS011;41331;45.412;10.992;2022-12-29T00:18:53;25.83;;;13.23;;
23432;SDS011;41331;45.412;10.992;2022-12-29T00:21:21;25.85;;;13.55;;
23432;SDS011;41331;45.412;10.992;2022-12-29T00:24:12;26.83;;;12.80;;
23432;SDS011;41331;45.412;10.992;2022-12-29T00:26:56;24.92;;;12.95;;
23432;SDS011;41331;45.412;10.992;2022-12-29T00:29:53;24.95;;;13.38;;
23432;SDS011;41331;45.412;10.992;2022-12-29T00:32:39;21.35;;;12.13;;
23432;SDS011;41331;45.412;10.992;2022-12-29T00:35:29;21.83;;;12.45;;
23432;SDS011;41331;45.412;10.992;2022-12-29T00:38:02;22.05;;;12.65;;
23432;SDS011;41331;45.412;10.992;2022-12-29T00:40:50;21.70;;;12.48;;
23432;SDS011;41331;45.412;10.992;2022-12-29T00:43:36;25.08;;;13.60;;
23432;SDS011;41331;45.412;10.992;2022-12-29T00:46:22;26.00;;;12.35;;
23432;SDS011;41331;45.412;10.992;2022-12-29T00:48:50;22.33;;;11.82;;
23432;SDS011;41331;45.412;10.992;2022-12-29T00:51:36;21.95;;;12.63;;
23432;SDS011;41331;45.412;10.992;2022-12-29T00:54:04;20.80;;;10.98;;
23432;SDS011;41331;45.412;10.992;2022-12-29T00:56:31;21.83;;;11.98;;
23432;SDS011;41331;45.412;10.992;2022-12-29T00:59:03;21.20;;;10.93;;
23432;SDS011;41331;45.412;10.992;2022-12-29T01:01:35;18.77;;;10.73;;
23432;SDS011;41331;45.412;10.992;2022-12-29T01:04:03;19.27;;;10.90;;
23432;SDS011;41331;45.412;10.992;2022-12-29T01:06:32;22.00;;;10.32;;
23432;SDS011;41331;45.412;10.992;2022-12-29T01:09:01;18.38;;;10.45;;
23432;SDS011;41331;45.412;10.992;2022-12-29T01:11:47;17.75;;;9.80;;
23432;SDS011;41331;45.412;10.992;2022-12-29T01:14:15;18.02;;;9.77;;
23432;SDS011;41331;45.412;10.992;2022-12-29T01:16:44;19.33;;;10.10;;
23432;SDS011;41331;45.412;10.992;2022-12-29T01:19:12;19.20;;;10.00;;
23432;SDS011;41331;45.412;10.992;2022-12-29T01:21:41;16.88;;;9.50;;
23432;SDS011;41331;45.412;10.992;2022-12-29T01:24:08;16.08;;;9.68;;
23432;SDS011;41331;45.412;10.992;2022-12-29T01:26:36;18.00;;;9.73;;
23432;SDS011;41331;45.412;10.992;2022-12-29T01:29:03;16.95;;;9.75;;
23432;SDS011;41331;45.412;10.992;2022-12-29T01:31:31;17.95;;;9.77;;
23432;SDS011;41331;45.412;10.992;2022-12-29T01:33:58;20.63;;;9.80;;
23432;SDS011;41331;45.412;10.992;2022-12-29T01:36:26;19.50;;;10.60;;
23432;SDS011;41331;45.412;10.992;2022-12-29T01:38:53;20.33;;;10.18;;
23432;SDS011;41331;45.412;10.992;2022-12-29T01:41:20;20.73;;;10.73;;
23432;SDS011;41331;45.412;10.992;2022-12-29T01:43:50;16.15;;;9.60;;
23432;SDS011;41331;45.412;10.992;2022-12-29T01:46:30;20.30;;;10.98;;
23432;SDS011;41331;45.412;10.992;2022-12-29T01:49:20;18.17;;;10.35;;
23432;SDS011;41331;45.412;10.992;2022-12-29T01:54:24;17.85;;;10.02;;
23432;SDS011;41331;45.412;10.992;2022-12-29T01:56:55;21.83;;;10.93;;
23432;SDS011;41331;45.412;10.992;2022-12-29T01:59:27;18.57;;;10.63;;
23432;SDS011;41331;45.412;10.992;2022-12-29T02:01:59;18.98;;;10.85;;
23432;SDS011;41331;45.412;10.992;2022-12-29T02:04:28;19.35;;;10.70;;
23432;SDS011;41331;45.412;10.992;2022-12-29T02:07:02;27.35;;;11.77;;
23432;SDS011;41331;45.412;10.992;2022-12-29T02:09:35;21.02;;;11.75;;
23432;SDS011;41331;45.412;10.992;2022-12-29T02:12:03;19.02;;;10.75;;
23432;SDS011;41331;45.412;10.992;2022-12-29T02:14:30;21.25;;;11.10;;
23432;SDS011;41331;45.412;10.992;2022-12-29T02:28:33;23.25;;;12.07;;
23432;SDS011;41331;45.412;10.992;2022-12-29T02:31:31;22.73;;;11.68;;
23432;SDS011;41331;45.412;10.992;2022-12-29T02:40:01;23.35;;;13.48;;
23432;SDS011;41331;45.412;10.992;2022-12-29T02:45:16;23.63;;;13.63;;
23432;SDS011;41331;45.412;10.992;2022-12-29T02:51:10;25.08;;;13.90;;
23432;SDS011;41331;45.412;10.992;2022-12-29T02:54:03;27.60;;;14.93;;
23432;SDS011;41331;45.412;10.992;2022-12-29T02:56:49;24.67;;;14.75;;
23432;SDS011;41331;45.412;10.992;2022-12-29T02:59:17;24.15;;;13.25;;
23432;SDS011;41331;45.412;10.992;2022-12-29T03:16:25;23.40;;;14.05;;
23432;SDS011;41331;45.412;10.992;2022-12-29T03:21:50;23.60;;;13.98;;
23432;SDS011;41331;45.412;10.992;2022-12-29T03:24:44;22.23;;;13.80;;
23432;SDS011;41331;45.412;10.992;2022-12-29T03:27:28;27.40;;;14.85;;
23432;SDS011;41331;45.412;10.992;2022-12-29T03:30:01;27.13;;;13.98;;
23432;SDS011;41331;45.412;10.992;2022-12-29T03:32:32;24.45;;;14.40;;
23432;SDS011;41331;45.412;10.992;2022-12-29T03:35:04;23.98;;;14.32;;
23432;SDS011;41331;45.412;10.992;2022-12-29T03:37:36;23.73;;;13.23;;
23432;SDS011;41331;45.412;10.992;2022-12-29T03:40:08;22.67;;;13.65;;
23432;SDS011;41331;45.412;10.992;2022-12-29T03:42:37;22.65;;;13.48;;
23432;SDS011;41331;45.412;10.992;2022-12-29T03:45:07;27.33;;;15.20;;
23432;SDS011;41331;45.412;10.992;2022-12-29T03:47:36;25.85;;;15.15;;
23432;SDS011;41331;45.412;10.992;2022-12-29T03:50:05;27.75;;;15.52;;
23432;SDS011;41331;45.412;10.992;2022-12-29T03:52:36;25.63;;;14.73;;
23432;SDS011;41331;45.412;10.992;2022-12-29T03:55:04;24.92;;;14.98;;
23432;SDS011;41331;45.412;10.992;2022-12-29T03:57:32;26.02;;;15.55;;
23432;SDS011;41331;45.412;10.992;2022-12-29T04:00:04;26.20;;;14.80;;
23432;SDS011;41331;45.412;10.992;2022-12-29T04:02:41;24.55;;;14.93;;
23432;SDS011;41331;45.412;10.992;2022-12-29T04:05:14;25.00;;;14.32;;
23432;SDS011;41331;45.412;10.992;2022-12-29T04:07:41;25.85;;;15.60;;
23432;SDS011;41331;45.412;10.992;2022-12-29T04:10:09;30.23;;;15.90;;
23432;SDS011;41331;45.412;10.992;2022-12-29T04:12:37;30.33;;;17.27;;
23432;SDS011;41331;45.412;10.992;2022-12-29T04:15:05;32.00;;;18.05;;
23432;SDS011;41331;45.412;10.992;2022-12-29T04:17:33;32.58;;;17.13;;
23432;SDS011;41331;45.412;10.992;2022-12-29T04:20:02;27.63;;;17.38;;
23432;SDS011;41331;45.412;10.992;2022-12-29T04:22:49;25.98;;;15.63;;
23432;SDS011;41331;45.412;10.992;2022-12-29T04:25:24;32.63;;;17.65;;
23432;SDS011;41331;45.412;10.992;2022-12-29T04:27:52;29.13;;;16.35;;
23432;SDS011;41331;45.412;10.992;2022-12-29T04:30:38;26.92;;;15.23;;
23432;SDS011;41331;45.412;10.992;2022-12-29T04:33:12;28.90;;;15.98;;
23432;SDS011;41331;45.412;10.992;2022-12-29T04:35:42;24.92;;;15.02;;
23432;SDS011;41331;45.412;10.992;2022-12-29T04:38:10;23.33;;;13.52;;
23432;SDS011;41331;45.412;10.992;2022-12-29T04:40:39;28.08;;;14.07;;
23432;SDS011;41331;45.412;10.992;2022-12-29T04:43:10;23.00;;;13.25;;
23432;SDS011;41331;45.412;10.992;2022-12-29T04:46:09;24.15;;;13.70;;
23432;SDS011;41331;45.412;10.992;2022-12-29T04:49:02;28.95;;;13.85;;
23432;SDS011;41331;45.412;10.992;2022-12-29T04:51:54;21.83;;;13.10;;
23432;SDS011;41331;45.412;10.992;2022-12-29T04:54:22;21.70;;;13.48;;
23432;SDS011;41331;45.412;10.992;2022-12-29T04:56:58;25.30;;;14.85;;
23432;SDS011;41331;45.412;10.992;2022-12-29T04:59:25;24.80;;;14.48;;
23432;SDS011;41331;45.412;10.992;2022-12-29T05:01:56;24.15;;;14.85;;
23432;SDS011;41331;45.412;10.992;2022-12-29T05:04:24;22.50;;;13.98;;
23432;SDS011;41331;45.412;10.992;2022-12-29T05:06:52;24.05;;;14.20;;
23432;SDS011;41331;45.412;10.992;2022-12-29T05:09:19;26.48;;;14.02;;
23432;SDS011;41331;45.412;10.992;2022-12-29T05:11:47;26.23;;;13.70;;
23432;SDS011;41331;45.412;10.992;2022-12-29T05:14:14;22.85;;;12.77;;
23432;SDS011;41331;45.412;10.992;2022-12-29T05:16:44;19.58;;;12.15;;
23432;SDS011;41331;45.412;10.992;2022-12-29T05:19:12;18.42;;;11.02;;
23432;SDS011;41331;45.412;10.992;2022-12-29T05:21:40;23.33;;;11.43;;
23432;SDS011;41331;45.412;10.992;2022-12-29T05:24:07;17.58;;;9.68;;
23432;SDS011;41331;45.412;10.992;2022-12-29T05:26:35;17.20;;;8.93;;
23432;SDS011;41331;45.412;10.992;2022-12-29T05:29:21;12.55;;;8.15;;
23432;SDS011;41331;45.412;10.992;2022-12-29T05:31:49;14.88;;;8.90;;
23432;SDS011;41331;45.412;10.992;2022-12-29T05:34:16;14.98;;;8.38;;
23432;SDS011;41331;45.412;10.992;2022-12-29T05:36:44;12.65;;;7.80;;
23432;SDS011;41331;45.412;10.992;2022-12-29T05:39:13;13.95;;;7.97;;
23432;SDS011;41331;45.412;10.992;2022-12-29T05:41:43;17.33;;;8.35;;
23432;SDS011;41331;45.412;10.992;2022-12-29T05:44:29;12.20;;;6.68;;
23432;SDS011;41331;45.412;10.992;2022-12-29T05:47:22;12.52;;;7.10;;
23432;SDS011;41331;45.412;10.992;2022-12-29T05:50:02;11.57;;;7.03;;
23432;SDS011;41331;45.412;10.992;2022-12-29T05:52:50;13.10;;;7.05;;
23432;SDS011;41331;45.412;10.992;2022-12-29T05:55:18;11.60;;;6.13;;
23432;SDS011;41331;45.412;10.992;2022-12-29T05:57:48;13.18;;;7.30;;
23432;SDS011;41331;45.412;10.992;2022-12-29T06:00:17;11.13;;;6.90;;
23432;SDS011;41331;45.412;10.992;2022-12-29T06:02:46;11.55;;;7.25;;
23432;SDS011;41331;45.412;10.992;2022-12-29T06:05:15;11.93;;;6.28;;
23432;SDS011;41331;45.412;10.992;2022-12-29T06:07:43;12.43;;;7.13;;
23432;SDS011;41331;45.412;10.992;2022-12-29T06:10:14;12.98;;;7.70;;
23432;SDS011;41331;45.412;10.992;2022-12-29T06:12:46;13.00;;;7.40;;
23432;SDS011;41331;45.412;10.992;2022-12-29T06:15:14;13.60;;;7.60;;
23432;SDS011;41331;45.412;10.992;2022-12-29T06:17:44;13.57;;;7.38;;
23432;SDS011;41331;45.412;10.992;2022-12-29T06:20:11;12.80;;;7.90;;
23432;SDS011;41331;45.412;10.992;2022-12-29T06:22:39;11.88;;;7.20;;
23432;SDS011;41331;45.412;10.992;2022-12-29T06:25:07;14.52;;;7.57;;
23432;SDS011;41331;45.412;10.992;2022-12-29T06:27:35;10.85;;;7.00;;
23432;SDS011;41331;45.412;10.992;2022-12-29T06:30:03;12.70;;;7.93;;
23432;SDS011;41331;45.412;10.992;2022-12-29T06:32:30;17.10;;;7.90;;
23432;SDS011;41331;45.412;10.992;2022-12-29T06:35:04;12.48;;;6.85;;
23432;SDS011;41331;45.412;10.992;2022-12-29T06:37:36;12.63;;;7.93;;
23432;SDS011;41331;45.412;10.992;2022-12-29T06:40:04;13.25;;;7.72;;
23432;SDS011;41331;45.412;10.992;2022-12-29T06:42:48;14.63;;;7.82;;
23432;SDS011;41331;45.412;10.992;2022-12-29T06:45:32;14.57;;;7.97;;
23432;SDS011;41331;45.412;10.992;2022-12-29T06:47:59;16.83;;;7.93;;
23432;SDS011;41331;45.412;10.992;2022-12-29T06:50:27;14.57;;;8.38;;
23432;SDS011;41331;45.412;10.992;2022-12-29T06:52:54;14.63;;;7.50;;
23432;SDS011;41331;45.412;10.992;2022-12-29T06:55:22;15.05;;;8.55;;
23432;SDS011;41331;45.412;10.992;2022-12-29T06:57:49;12.50;;;7.70;;
23432;SDS011;41331;45.412;10.992;2022-12-29T07:00:16;17.10;;;8.98;;
23432;SDS011;41331;45.412;10.992;2022-12-29T07:02:49;15.10;;;8.90;;
23432;SDS011;41331;45.412;10.992;2022-12-29T07:05:17;13.23;;;8.40;;
23432;SDS011;41331;45.412;10.992;2022-12-29T07:07:44;14.98;;;8.13;;
23432;SDS011;41331;45.412;10.992;2022-12-29T07:10:12;17.40;;;8.75;;
23432;SDS011;41331;45.412;10.992;2022-12-29T07:12:39;13.38;;;8.80;;
23432;SDS011;41331;45.412;10.992;2022-12-29T07:15:07;16.17;;;8.35;;
23432;SDS011;41331;45.412;10.992;2022-12-29T07:17:35;15.32;;;9.77;;
23432;SDS011;41331;45.412;10.992;2022-12-29T07:20:02;14.73;;;8.95;;
23432;SDS011;41331;45.412;10.992;2022-12-29T07:22:30;15.80;;;9.30;;
23432;SDS011;41331;45.412;10.992;2022-12-29T07:24:57;15.38;;;9.13;;
23432;SDS011;41331;45.412;10.992;2022-12-29T07:27:25;15.05;;;8.60;;
23432;SDS011;41331;45.412;10.992;2022-12-29T07:29:52;15.63;;;9.07;;
23432;SDS011;41331;45.412;10.992;2022-12-29T07:32:19;14.02;;;8.55;;
23432;SDS011;41331;45.412;10.992;2022-12-29T07:34:47;16.13;;;8.43;;
23432;SDS011;41331;45.412;10.992;2022-12-29T07:37:14;13.77;;;7.53;;
23432;SDS011;41331;45.412;10.992;2022-12-29T07:39:43;14.75;;;7.68;;
23432;SDS011;41331;45.412;10.992;2022-12-29T07:42:10;14.25;;;8.25;;
23432;SDS011;41331;45.412;10.992;2022-12-29T07:44:42;15.10;;;8.73;;
23432;SDS011;41331;45.412;10.992;2022-12-29T07:47:25;14.13;;;8.50;;
23432;SDS011;41331;45.412;10.992;2022-12-29T07:49:53;14.43;;;8.35;;
23432;SDS011;41331;45.412;10.992;2022-12-29T07:52:21;15.98;;;8.27;;
23432;SDS011;41331;45.412;10.992;2022-12-29T07:54:48;15.82;;;8.50;;
23432;SDS011;41331;45.412;10.992;2022-12-29T07:57:16;15.88;;;8.60;;
23432;SDS011;41331;45.412;10.992;2022-12-29T07:59:43;17.70;;;9.45;;
23432;SDS011;41331;45.412;10.992;2022-12-29T08:02:10;17.55;;;9.55;;
23432;SDS011;41331;45.412;10.992;2022-12-29T08:04:38;18.95;;;9.55;;
23432;SDS011;41331;45.412;10.992;2022-12-29T08:07:06;15.02;;;9.18;;
23432;SDS011;41331;45.412;10.992;2022-12-29T08:09:34;21.30;;;10.82;;
23432;SDS011;41331;45.412;10.992;2022-12-29T08:12:01;18.63;;;10.85;;
23432;SDS011;41331;45.412;10.992;2022-12-29T08:14:29;21.10;;;11.43;;
23432;SDS011;41331;45.412;10.992;2022-12-29T08:16:56;21.05;;;11.57;;
23432;SDS011;41331;45.412;10.992;2022-12-29T08:19:23;19.02;;;10.65;;
23432;SDS011;41331;45.412;10.992;2022-12-29T08:21:52;17.98;;;10.85;;
23432;SDS011;41331;45.412;10.992;2022-12-29T08:24:19;20.05;;;10.88;;
23432;SDS011;41331;45.412;10.992;2022-12-29T08:26:47;19.08;;;10.55;;
23432;SDS011;41331;45.412;10.992;2022-12-29T08:29:14;18.75;;;10.90;;
23432;SDS011;41331;45.412;10.992;2022-12-29T08:31:42;21.70;;;10.52;;
23432;SDS011;41331;45.412;10.992;2022-12-29T08:34:10;19.42;;;10.82;;
23432;SDS011;41331;45.412;10.992;2022-12-29T08:36:38;17.98;;;10.57;;
23432;SDS011;41331;45.412;10.992;2022-12-29T08:39:05;19.35;;;10.73;;
23432;SDS011;41331;45.412;10.992;2022-12-29T08:41:33;20.10;;;10.82;;
23432;SDS011;41331;45.412;10.992;2022-12-29T08:44:00;17.05;;;11.32;;
23432;SDS011;41331;45.412;10.992;2022-12-29T08:46:46;20.23;;;10.88;;
23432;SDS011;41331;45.412;10.992;2022-12-29T08:49:14;19.13;;;10.18;;
23432;SDS011;41331;45.412;10.992;2022-12-29T08:51:41;21.95;;;10.80;;
23432;SDS011;41331;45.412;10.992;2022-12-29T08:54:08;19.85;;;10.55;;
23432;SDS011;41331;45.412;10.992;2022-12-29T08:56:36;23.05;;;10.57;;
23432;SDS011;41331;45.412;10.992;2022-12-29T08:59:04;18.42;;;10.73;;
23432;SDS011;41331;45.412;10.992;2022-12-29T09:01:31;23.63;;;10.52;;
23432;SDS011;41331;45.412;10.992;2022-12-29T09:04:00;19.73;;;11.05;;
23432;SDS011;41331;45.412;10.992;2022-12-29T09:06:44;18.20;;;11.43;;
23432;SDS011;41331;45.412;10.992;2022-12-29T09:09:12;20.08;;;10.98;;
23432;SDS011;41331;45.412;10.992;2022-12-29T09:11:40;20.85;;;11.75;;
23432;SDS011;41331;45.412;10.992;2022-12-29T09:14:08;23.67;;;12.02;;
23432;SDS011;41331;45.412;10.992;2022-12-29T09:16:36;18.10;;;11.45;;
23432;SDS011;41331;45.412;10.992;2022-12-29T09:19:04;20.67;;;11.55;;
23432;SDS011;41331;45.412;10.992;2022-12-29T09:21:31;20.90;;;11.90;;
23432;SDS011;41331;45.412;10.992;2022-12-29T09:23:59;19.42;;;12.05;;
23432;SDS011;41331;45.412;10.992;2022-12-29T09:26:26;21.33;;;11.80;;
23432;SDS011;41331;45.412;10.992;2022-12-29T09:28:54;20.98;;;11.35;;
23432;SDS011;41331;45.412;10.992;2022-12-29T09:31:21;19.65;;;11.65;;
23432;SDS011;41331;45.412;10.992;2022-12-29T09:33:49;20.88;;;12.30;;
23432;SDS011;41331;45.412;10.992;2022-12-29T09:36:16;20.50;;;11.90;;
23432;SDS011;41331;45.412;10.992;2022-12-29T09:38:44;21.33;;;12.30;;
23432;SDS011;41331;45.412;10.992;2022-12-29T09:41:16;22.88;;;12.63;;
23432;SDS011;41331;45.412;10.992;2022-12-29T09:44:11;21.80;;;13.02;;
23432;SDS011;41331;45.412;10.992;2022-12-29T09:46:44;23.33;;;13.18;;
23432;SDS011;41331;45.412;10.992;2022-12-29T09:49:22;23.27;;;13.68;;
23432;SDS011;41331;45.412;10.992;2022-12-29T09:52:06;22.42;;;13.30;;
23432;SDS011;41331;45.412;10.992;2022-12-29T10:03:40;26.80;;;13.23;;
23432;SDS011;41331;45.412;10.992;2022-12-29T10:06:21;19.70;;;12.13;;
23432;SDS011;41331;45.412;10.992;2022-12-29T10:14:33;22.38;;;13.93;;
23432;SDS011;41331;45.412;10.992;2022-12-29T10:23:17;28.05;;;15.15;;
23432;SDS011;41331;45.412;10.992;2022-12-29T10:25:56;31.45;;;16.75;;
23432;SDS011;41331;45.412;10.992;2022-12-29T10:28:45;35.22;;;19.92;;
23432;SDS011;41331;45.412;10.992;2022-12-29T10:34:27;35.25;;;20.10;;
23432;SDS011;41331;45.412;10.992;2022-12-29T10:37:24;33.72;;;20.73;;
23432;SDS011;41331;45.412;10.992;2022-12-29T10:39:59;37.75;;;22.05;;
23432;SDS011;41331;45.412;10.992;2022-12-29T10:42:43;34.60;;;21.58;;
23432;SDS011;41331;45.412;10.992;2022-12-29T10:45:14;36.53;;;20.85;;
23432;SDS011;41331;45.412;10.992;2022-12-29T10:48:19;38.47;;;21.67;;
23432;SDS011;41331;45.412;10.992;2022-12-29T10:50:44;36.50;;;21.67;;
23432;SDS011;41331;45.412;10.992;2022-12-29T10:53:17;37.95;;;22.90;;
23432;SDS011;41331;45.412;10.992;2022-12-29T10:55:49;35.38;;;21.67;;
23432;SDS011;41331;45.412;10.992;2022-12-29T10:58:17;33.72;;;20.98;;
23432;SDS011;41331;45.412;10.992;2022-12-29T11:00:49;41.05;;;22.30;;
23432;SDS011;41331;45.412;10.992;2022-12-29T11:09:00;40.50;;;24.80;;
23432;SDS011;41331;45.412;10.992;2022-12-29T11:11:37;38.67;;;23.42;;
23432;SDS011;41331;45.412;10.992;2022-12-29T11:16:44;39.35;;;22.35;;
23432;SDS011;41331;45.412;10.992;2022-12-29T11:19:25;39.25;;;23.20;;
23432;SDS011;41331;45.412;10.992;2022-12-29T11:21:54;35.90;;;21.75;;
23432;SDS011;41331;45.412;10.992;2022-12-29T11:26:54;35.57;;;22.53;;
23432;SDS011;41331;45.412;10.992;2022-12-29T11:32:25;35.78;;;21.88;;
23432;SDS011;41331;45.412;10.992;2022-12-29T11:34:56;40.22;;;22.63;;
23432;SDS011;41331;45.412;10.992;2022-12-29T11:37:29;39.67;;;23.60;;
23432;SDS011;41331;45.412;10.992;2022-12-29T11:40:18;38.17;;;22.60;;
23432;SDS011;41331;45.412;10.992;2022-12-29T11:42:51;39.03;;;22.98;;
23432;SDS011;41331;45.412;10.992;2022-12-29T11:45:25;66.75;;;39.75;;
23432;SDS011;41331;45.412;10.992;2022-12-29T11:47:56;38.28;;;23.95;;
23432;SDS011;41331;45.412;10.992;2022-12-29T11:50:33;58.28;;;33.72;;
23432;SDS011;41331;45.412;10.992;2022-12-29T11:53:03;34.72;;;20.92;;
23432;SDS011;41331;45.412;10.992;2022-12-29T11:55:35;28.75;;;17.98;;
23432;SDS011;41331;45.412;10.992;2022-12-29T11:58:02;31.35;;;20.70;;
23432;SDS011;41331;45.412;10.992;2022-12-29T12:00:32;32.70;;;20.02;;
23432;SDS011;41331;45.412;10.992;2022-12-29T12:05:41;33.20;;;18.92;;
23432;SDS011;41331;45.412;10.992;2022-12-29T12:08:19;30.52;;;18.77;;
23432;SDS011;41331;45.412;10.992;2022-12-29T12:11:20;28.08;;;18.40;;
23432;SDS011;41331;45.412;10.992;2022-12-29T12:14:00;31.55;;;20.42;;
23432;SDS011;41331;45.412;10.992;2022-12-29T12:17:08;32.88;;;18.65;;
23432;SDS011;41331;45.412;10.992;2022-12-29T12:19:47;29.67;;;19.40;;
23432;SDS011;41331;45.412;10.992;2022-12-29T12:22:38;33.75;;;19.70;;
23432;SDS011;41331;45.412;10.992;2022-12-29T12:25:28;33.78;;;20.55;;
23432;SDS011;41331;45.412;10.992;2022-12-29T12:28:11;38.05;;;21.20;;
23432;SDS011;41331;45.412;10.992;2022-12-29T12:30:48;34.00;;;21.90;;
23432;SDS011;41331;45.412;10.992;2022-12-29T12:33:31;37.40;;;21.98;;
23432;SDS011;41331;45.412;10.992;2022-12-29T12:38:44;38.17;;;22.92;;
23432;SDS011;41331;45.412;10.992;2022-12-29T12:41:30;34.83;;;22.08;;
23432;SDS011;41331;45.412;10.992;2022-12-29T12:52:15;33.45;;;20.55;;
23432;SDS011;41331;45.412;10.992;2022-12-29T13:01:18;41.58;;;23.00;;
23432;SDS011;41331;45.412;10.992;2022-12-29T13:04:12;39.65;;;24.52;;
23432;SDS011;41331;45.412;10.992;2022-12-29T13:07:16;44.42;;;25.35;;
23432;SDS011;41331;45.412;10.992;2022-12-29T13:09:52;43.55;;;25.40;;
23432;SDS011;41331;45.412;10.992;2022-12-29T13:12:34;42.72;;;25.42;;
23432;SDS011;41331;45.412;10.992;2022-12-29T13:17:49;40.35;;;25.17;;
23432;SDS011;41331;45.412;10.992;2022-12-29T13:20:39;43.47;;;25.83;;
23432;SDS011;41331;45.412;10.992;2022-12-29T13:23:25;40.35;;;24.42;;
23432;SDS011;41331;45.412;10.992;2022-12-29T13:31:41;37.13;;;23.50;;
23432;SDS011;41331;45.412;10.992;2022-12-29T13:34:53;35.70;;;22.97;;
23432;SDS011;41331;45.412;10.992;2022-12-29T13:37:31;41.05;;;24.45;;
23432;SDS011;41331;45.412;10.992;2022-12-29T13:40:16;43.53;;;23.25;;
23432;SDS011;41331;45.412;10.992;2022-12-29T13:42:48;42.40;;;23.95;;
23432;SDS011;41331;45.412;10.992;2022-12-29T13:45:17;37.55;;;23.27;;
23432;SDS011;41331;45.412;10.992;2022-12-29T13:47:50;44.60;;;23.70;;
23432;SDS011;41331;45.412;10.992;2022-12-29T13:50:29;44.97;;;23.63;;
23432;SDS011;41331;45.412;10.992;2022-12-29T13:55:55;36.63;;;21.40;;
23432;SDS011;41331;45.412;10.992;2022-12-29T14:03:52;35.75;;;21.52;;
23432;SDS011;41331;45.412;10.992;2022-12-29T14:06:28;39.25;;;22.35;;
23432;SDS011;41331;45.412;10.992;2022-12-29T14:09:03;34.28;;;21.80;;
23432;SDS011;41331;45.412;10.992;2022-12-29T14:11:33;38.50;;;22.70;;
23432;SDS011;41331;45.412;10.992;2022-12-29T14:16:41;38.40;;;23.85;;
23432;SDS011;41331;45.412;10.992;2022-12-29T14:24:59;39.38;;;23.33;;
23432;SDS011;41331;45.412;10.992;2022-12-29T14:29:54;37.95;;;23.05;;
23432;SDS011;41331;45.412;10.992;2022-12-29T14:40:16;42.97;;;24.50;;
23432;SDS011;41331;45.412;10.992;2022-12-29T14:42:46;39.40;;;23.60;;
23432;SDS011;41331;45.412;10.992;2022-12-29T14:47:46;40.95;;;25.02;;
23432;SDS011;41331;45.412;10.992;2022-12-29T14:50:17;47.22;;;27.08;;
23432;SDS011;41331;45.412;10.992;2022-12-29T14:57:43;43.55;;;25.27;;
23432;SDS011;41331;45.412;10.992;2022-12-29T15:00:23;43.00;;;26.52;;
23432;SDS011;41331;45.412;10.992;2022-12-29T15:02:59;49.50;;;28.08;;
23432;SDS011;41331;45.412;10.992;2022-12-29T15:08:16;44.95;;;26.48;;
23432;SDS011;41331;45.412;10.992;2022-12-29T15:10:48;41.75;;;25.75;;
23432;SDS011;41331;45.412;10.992;2022-12-29T15:13:22;41.63;;;25.75;;
23432;SDS011;41331;45.412;10.992;2022-12-29T15:15:52;39.60;;;25.13;;
23432;SDS011;41331;45.412;10.992;2022-12-29T15:21:01;42.03;;;25.25;;
23432;SDS011;41331;45.412;10.992;2022-12-29T15:23:32;42.97;;;25.15;;
23432;SDS011;41331;45.412;10.992;2022-12-29T15:26:06;43.33;;;26.20;;
23432;SDS011;41331;45.412;10.992;2022-12-29T15:28:42;42.95;;;26.10;;
23432;SDS011;41331;45.412;10.992;2022-12-29T15:31:12;41.78;;;26.13;;
23432;SDS011;41331;45.412;10.992;2022-12-29T15:34:10;39.70;;;25.10;;
23432;SDS011;41331;45.412;10.992;2022-12-29T15:36:40;42.83;;;25.20;;
23432;SDS011;41331;45.412;10.992;2022-12-29T15:39:23;41.30;;;26.08;;
23432;SDS011;41331;45.412;10.992;2022-12-29T15:42:45;44.75;;;26.20;;
23432;SDS011;41331;45.412;10.992;2022-12-29T15:45:04;41.03;;;24.90;;
23432;SDS011;41331;45.412;10.992;2022-12-29T15:47:37;42.15;;;25.23;;
23432;SDS011;41331;45.412;10.992;2022-12-29T15:50:28;42.05;;;26.63;;
23432;SDS011;41331;45.412;10.992;2022-12-29T15:52:56;43.10;;;26.75;;
23432;SDS011;41331;45.412;10.992;2022-12-29T15:55:32;42.40;;;25.08;;
23432;SDS011;41331;45.412;10.992;2022-12-29T15:58:03;42.85;;;26.10;;
23432;SDS011;41331;45.412;10.992;2022-12-29T16:00:33;43.70;;;24.92;;
23432;SDS011;41331;45.412;10.992;2022-12-29T16:05:37;44.85;;;26.35;;
23432;SDS011;41331;45.412;10.992;2022-12-29T16:11:16;45.63;;;26.88;;
23432;SDS011;41331;45.412;10.992;2022-12-29T16:13:50;46.83;;;26.35;;
23432;SDS011;41331;45.412;10.992;2022-12-29T16:16:42;43.22;;;25.50;;
23432;SDS011;41331;45.412;10.992;2022-12-29T16:19:13;44.03;;;26.20;;
23432;SDS011;41331;45.412;10.992;2022-12-29T16:21:46;45.58;;;25.98;;
23432;SDS011;41331;45.412;10.992;2022-12-29T16:24:18;45.95;;;25.80;;
23432;SDS011;41331;45.412;10.992;2022-12-29T16:26:51;42.20;;;26.63;;
23432;SDS011;41331;45.412;10.992;2022-12-29T16:29:56;44.03;;;27.52;;
23432;SDS011;41331;45.412;10.992;2022-12-29T16:38:16;44.35;;;26.83;;
23432;SDS011;41331;45.412;10.992;2022-12-29T16:40:49;45.58;;;28.63;;
23432;SDS011;41331;45.412;10.992;2022-12-29T16:43:24;47.25;;;27.75;;
23432;SDS011;41331;45.412;10.992;2022-12-29T16:48:28;51.53;;;29.65;;
23432;SDS011;41331;45.412;10.992;2022-12-29T16:51:21;52.08;;;30.45;;
23432;SDS011;41331;45.412;10.992;2022-12-29T16:53:57;50.47;;;30.30;;
23432;SDS011;41331;45.412;10.992;2022-12-29T16:56:26;52.63;;;29.95;;
23432;SDS011;41331;45.412;10.992;2022-12-29T16:59:00;50.00;;;30.10;;
23432;SDS011;41331;45.412;10.992;2022-12-29T17:01:31;46.85;;;28.17;;
23432;SDS011;41331;45.412;10.992;2022-12-29T17:04:05;48.55;;;28.60;;
23432;SDS011;41331;45.412;10.992;2022-12-29T17:06:34;49.95;;;28.83;;
23432;SDS011;41331;45.412;10.992;2022-12-29T17:09:02;55.30;;;29.25;;
23432;SDS011;41331;45.412;10.992;2022-12-29T17:11:33;43.47;;;26.10;;
23432;SDS011;41331;45.412;10.992;2022-12-29T17:16:58;46.97;;;25.52;;
23432;SDS011;41331;45.412;10.992;2022-12-29T17:19:30;44.90;;;26.10;;
23432;SDS011;41331;45.412;10.992;2022-12-29T17:22:02;44.95;;;24.88;;
23432;SDS011;41331;45.412;10.992;2022-12-29T17:24:36;43.10;;;23.83;;
23432;SDS011;41331;45.412;10.992;2022-12-29T17:27:04;43.90;;;24.30;;
23432;SDS011;41331;45.412;10.992;2022-12-29T17:32:09;42.35;;;24.00;;
23432;SDS011;41331;45.412;10.992;2022-12-29T17:34:39;41.22;;;24.25;;
23432;SDS011;41331;45.412;10.992;2022-12-29T17:39:50;39.58;;;23.27;;